sensor_id;sensor_type;location;lat;lon;timestamp;temperature;humidity
45843;DHT22;31563;51.744;8.252;2023-11-19T00:00:13;16.90;69.20
45843;DHT22;31563;51.744;8.252;2023-11-19T00:02:41;16.90;69.30
45843;DHT22;31563;51.744;8.252;2023-11-19T00:05:10;16.80;69.30
45843;DHT22;31563;51.744;8.252;2023-11-19T00:07:39;16.80;69.30
45843;DHT22;31563;51.744;8.252;2023-11-19T00:10:10;16.80;69.50
45843;DHT22;31563;51.744;8.252;2023-11-19T00:12:40;16.70;70.10
45843;DHT22;31563;51.744;8.252;2023-11-19T00:15:09;16.70;69.60
45843;DHT22;31563;51.744;8.252;2023-11-19T00:17:38;16.70;69.60
45843;DHT22;31563;51.744;8.252;2023-11-19T00:20:12;16.70;69.50
45843;DHT22;31563;51.744;8.252;2023-11-19T00:22:40;16.70;69.60
45843;DHT22;31563;51.744;8.252;2023-11-19T00:25:13;16.80;69.40
45843;DHT22;31563;51.744;8.252;2023-11-19T00:27:41;16.80;69.20
45843;DHT22;31563;51.744;8.252;2023-11-19T00:30:12;16.90;69.10
45843;DHT22;31563;51.744;8.252;2023-11-19T00:32:41;16.90;68.90
45843;DHT22;31563;51.744;8.252;2023-11-19T00:35:09;16.90;68.80
45843;DHT22;31563;51.744;8.252;2023-11-19T00:37:37;16.90;68.80
45843;DHT22;31563;51.744;8.252;2023-11-19T00:40:07;16.90;68.70
45843;DHT22;31563;51.744;8.252;2023-11-19T00:42:38;16.80;68.70
45843;DHT22;31563;51.744;8.252;2023-11-19T00:45:07;16.80;68.70
45843;DHT22;31563;51.744;8.252;2023-11-19T00:47:37;16.90;68.70
45843;DHT22;31563;51.744;8.252;2023-11-19T00:50:06;16.90;68.60
45843;DHT22;31563;51.744;8.252;2023-11-19T00:52:36;16.90;68.50
45843;DHT22;31563;51.744;8.252;2023-11-19T00:55:05;16.90;69.10
45843;DHT22;31563;51.744;8.252;2023-11-19T00:57:34;16.90;68.40
45843;DHT22;31563;51.744;8.252;2023-11-19T01:00:05;16.90;68.40
45843;DHT22;31563;51.744;8.252;2023-11-19T01:02:36;16.90;68.40
45843;DHT22;31563;51.744;8.252;2023-11-19T01:05:07;16.90;68.40
45843;DHT22;31563;51.744;8.252;2023-11-19T01:07:36;16.90;68.40
45843;DHT22;31563;51.744;8.252;2023-11-19T01:10:04;16.90;68.40
45843;DHT22;31563;51.744;8.252;2023-11-19T01:12:32;16.90;68.40
45843;DHT22;31563;51.744;8.252;2023-11-19T01:15:00;16.80;68.50
45843;DHT22;31563;51.744;8.252;2023-11-19T01:17:30;16.80;68.50
45843;DHT22;31563;51.744;8.252;2023-11-19T01:19:58;16.80;68.50
45843;DHT22;31563;51.744;8.252;2023-11-19T01:22:26;16.80;68.60
45843;DHT22;31563;51.744;8.252;2023-11-19T01:24:54;16.80;68.50
45843;DHT22;31563;51.744;8.252;2023-11-19T01:27:22;16.80;68.70
45843;DHT22;31563;51.744;8.252;2023-11-19T01:29:50;16.70;68.70
45843;DHT22;31563;51.744;8.252;2023-11-19T01:32:18;16.70;68.70
45843;DHT22;31563;51.744;8.252;2023-11-19T01:34:47;16.80;68.80
45843;DHT22;31563;51.744;8.252;2023-11-19T01:37:16;16.80;68.70
45843;DHT22;31563;51.744;8.252;2023-11-19T01:39:44;16.80;68.60
45843;DHT22;31563;51.744;8.252;2023-11-19T01:42:25;16.90;68.50
45843;DHT22;31563;51.744;8.252;2023-11-19T01:45:00;16.90;68.40
45843;DHT22;31563;51.744;8.252;2023-11-19T01:47:30;16.90;68.30
45843;DHT22;31563;51.744;8.252;2023-11-19T01:49:59;16.90;68.20
45843;DHT22;31563;51.744;8.252;2023-11-19T01:52:30;16.90;68.30
45843;DHT22;31563;51.744;8.252;2023-11-19T01:54:58;16.80;68.30
45843;DHT22;31563;51.744;8.252;2023-11-19T01:57:26;16.80;68.30
45843;DHT22;31563;51.744;8.252;2023-11-19T01:59:54;16.90;68.30
45843;DHT22;31563;51.744;8.252;2023-11-19T02:02:22;16.90;68.30
45843;DHT22;31563;51.744;8.252;2023-11-19T02:04:51;16.90;68.40
45843;DHT22;31563;51.744;8.252;2023-11-19T02:07:21;16.90;68.30
45843;DHT22;31563;51.744;8.252;2023-11-19T02:09:49;16.90;68.30
45843;DHT22;31563;51.744;8.252;2023-11-19T02:12:17;16.90;68.20
45843;DHT22;31563;51.744;8.252;2023-11-19T02:14:47;16.90;68.10
45843;DHT22;31563;51.744;8.252;2023-11-19T02:17:33;16.90;68.20
45843;DHT22;31563;51.744;8.252;2023-11-19T02:20:01;16.90;68.30
45843;DHT22;31563;51.744;8.252;2023-11-19T02:22:31;16.90;68.40
45843;DHT22;31563;51.744;8.252;2023-11-19T02:25:00;16.90;68.30
45843;DHT22;31563;51.744;8.252;2023-11-19T02:27:44;16.80;68.30
45843;DHT22;31563;51.744;8.252;2023-11-19T02:30:13;16.80;68.50
45843;DHT22;31563;51.744;8.252;2023-11-19T02:32:41;16.80;68.50
45843;DHT22;31563;51.744;8.252;2023-11-19T02:35:09;16.80;68.50
45843;DHT22;31563;51.744;8.252;2023-11-19T02:37:38;16.80;68.60
45843;DHT22;31563;51.744;8.252;2023-11-19T02:40:07;16.80;68.70
45843;DHT22;31563;51.744;8.252;2023-11-19T02:42:36;16.80;68.70
45843;DHT22;31563;51.744;8.252;2023-11-19T02:45:07;16.80;68.90
45843;DHT22;31563;51.744;8.252;2023-11-19T02:47:40;16.90;68.90
45843;DHT22;31563;51.744;8.252;2023-11-19T02:50:09;16.80;68.90
45843;DHT22;31563;51.744;8.252;2023-11-19T02:52:40;16.90;68.90
45843;DHT22;31563;51.744;8.252;2023-11-19T02:55:09;16.90;68.90
45843;DHT22;31563;51.744;8.252;2023-11-19T02:57:39;16.90;68.80
45843;DHT22;31563;51.744;8.252;2023-11-19T03:00:15;16.90;68.80
45843;DHT22;31563;51.744;8.252;2023-11-19T03:02:43;16.90;68.90
45843;DHT22;31563;51.744;8.252;2023-11-19T03:05:13;16.90;68.80
45843;DHT22;31563;51.744;8.252;2023-11-19T03:07:41;16.90;68.80
45843;DHT22;31563;51.744;8.252;2023-11-19T03:10:13;16.90;68.90
45843;DHT22;31563;51.744;8.252;2023-11-19T03:12:42;16.90;69.10
45843;DHT22;31563;51.744;8.252;2023-11-19T03:15:10;16.90;69.10
45843;DHT22;31563;51.744;8.252;2023-11-19T03:17:40;16.90;69.20
45843;DHT22;31563;51.744;8.252;2023-11-19T03:20:10;16.90;69.40
45843;DHT22;31563;51.744;8.252;2023-11-19T03:22:42;16.90;69.40
45843;DHT22;31563;51.744;8.252;2023-11-19T03:25:10;16.90;69.40
45843;DHT22;31563;51.744;8.252;2023-11-19T03:27:40;16.90;69.50
45843;DHT22;31563;51.744;8.252;2023-11-19T03:30:10;16.90;69.40
45843;DHT22;31563;51.744;8.252;2023-11-19T03:32:39;16.90;69.30
45843;DHT22;31563;51.744;8.252;2023-11-19T03:35:07;16.90;69.30
45843;DHT22;31563;51.744;8.252;2023-11-19T03:37:36;16.90;69.20
45843;DHT22;31563;51.744;8.252;2023-11-19T03:40:06;16.90;69.20
45843;DHT22;31563;51.744;8.252;2023-11-19T03:42:34;16.90;69.20
45843;DHT22;31563;51.744;8.252;2023-11-19T03:45:03;16.90;69.20
45843;DHT22;31563;51.744;8.252;2023-11-19T03:47:31;16.90;69.50
45843;DHT22;31563;51.744;8.252;2023-11-19T03:49:59;16.80;69.40
45843;DHT22;31563;51.744;8.252;2023-11-19T03:52:27;16.90;69.40
45843;DHT22;31563;51.744;8.252;2023-11-19T03:54:55;16.90;69.40
45843;DHT22;31563;51.744;8.252;2023-11-19T03:57:24;16.90;69.50
45843;DHT22;31563;51.744;8.252;2023-11-19T03:59:52;16.90;69.40
45843;DHT22;31563;51.744;8.252;2023-11-19T04:02:19;16.90;69.50
45843;DHT22;31563;51.744;8.252;2023-11-19T04:04:47;16.90;69.50
45843;DHT22;31563;51.744;8.252;2023-11-19T04:07:17;16.90;69.50
45843;DHT22;31563;51.744;8.252;2023-11-19T04:09:45;16.90;69.40
45843;DHT22;31563;51.744;8.252;2023-11-19T04:12:13;17.00;69.50
45843;DHT22;31563;51.744;8.252;2023-11-19T04:14:41;17.00;69.30
45843;DHT22;31563;51.744;8.252;2023-11-19T04:17:09;16.90;69.40
45843;DHT22;31563;51.744;8.252;2023-11-19T04:19:37;16.90;69.50
45843;DHT22;31563;51.744;8.252;2023-11-19T04:22:08;16.90;69.60
45843;DHT22;31563;51.744;8.252;2023-11-19T04:24:37;16.90;69.50
45843;DHT22;31563;51.744;8.252;2023-11-19T04:27:05;16.90;69.60
45843;DHT22;31563;51.744;8.252;2023-11-19T04:29:33;16.90;69.50
45843;DHT22;31563;51.744;8.252;2023-11-19T04:32:01;16.90;69.50
45843;DHT22;31563;51.744;8.252;2023-11-19T04:34:29;17.00;69.60
45843;DHT22;31563;51.744;8.252;2023-11-19T04:36:57;17.00;69.60
45843;DHT22;31563;51.744;8.252;2023-11-19T04:39:39;16.90;69.60
45843;DHT22;31563;51.744;8.252;2023-11-19T04:42:07;16.90;69.60
45843;DHT22;31563;51.744;8.252;2023-11-19T04:44:35;16.90;69.60
45843;DHT22;31563;51.744;8.252;2023-11-19T04:47:03;16.90;69.60
45843;DHT22;31563;51.744;8.252;2023-11-19T04:49:31;16.90;69.60
45843;DHT22;31563;51.744;8.252;2023-11-19T04:52:00;17.00;69.60
45843;DHT22;31563;51.744;8.252;2023-11-19T04:54:29;17.00;69.70
45843;DHT22;31563;51.744;8.252;2023-11-19T04:56:58;17.00;69.70
45843;DHT22;31563;51.744;8.252;2023-11-19T04:59:26;17.10;69.90
45843;DHT22;31563;51.744;8.252;2023-11-19T05:01:55;17.10;69.80
45843;DHT22;31563;51.744;8.252;2023-11-19T05:04:22;17.10;69.80
45843;DHT22;31563;51.744;8.252;2023-11-19T05:06:50;17.10;69.90
45843;DHT22;31563;51.744;8.252;2023-11-19T05:09:18;17.10;69.80
45843;DHT22;31563;51.744;8.252;2023-11-19T05:11:46;17.20;69.80
45843;DHT22;31563;51.744;8.252;2023-11-19T05:14:19;17.20;69.80
45843;DHT22;31563;51.744;8.252;2023-11-19T05:16:48;17.20;69.80
45843;DHT22;31563;51.744;8.252;2023-11-19T05:19:16;17.20;69.60
45843;DHT22;31563;51.744;8.252;2023-11-19T05:21:45;17.30;69.50
45843;DHT22;31563;51.744;8.252;2023-11-19T05:24:13;17.30;69.50
45843;DHT22;31563;51.744;8.252;2023-11-19T05:26:41;17.30;69.40
45843;DHT22;31563;51.744;8.252;2023-11-19T05:29:09;17.30;69.40
45843;DHT22;31563;51.744;8.252;2023-11-19T05:31:38;17.30;69.40
45843;DHT22;31563;51.744;8.252;2023-11-19T05:34:10;17.30;69.30
45843;DHT22;31563;51.744;8.252;2023-11-19T05:36:38;17.30;69.30
45843;DHT22;31563;51.744;8.252;2023-11-19T05:39:06;17.30;69.20
45843;DHT22;31563;51.744;8.252;2023-11-19T05:41:35;17.40;69.20
45843;DHT22;31563;51.744;8.252;2023-11-19T05:44:03;17.40;69.20
45843;DHT22;31563;51.744;8.252;2023-11-19T05:46:31;17.30;69.10
45843;DHT22;31563;51.744;8.252;2023-11-19T05:49:08;17.40;69.10
45843;DHT22;31563;51.744;8.252;2023-11-19T05:51:36;17.40;69.10
45843;DHT22;31563;51.744;8.252;2023-11-19T05:54:06;17.40;69.10
45843;DHT22;31563;51.744;8.252;2023-11-19T05:56:34;17.40;69.00
45843;DHT22;31563;51.744;8.252;2023-11-19T05:59:02;17.40;69.00
45843;DHT22;31563;51.744;8.252;2023-11-19T06:01:34;17.40;69.00
45843;DHT22;31563;51.744;8.252;2023-11-19T06:04:02;17.40;68.90
45843;DHT22;31563;51.744;8.252;2023-11-19T06:06:33;17.40;69.00
45843;DHT22;31563;51.744;8.252;2023-11-19T06:09:00;17.50;69.00
45843;DHT22;31563;51.744;8.252;2023-11-19T06:11:35;17.40;69.00
45843;DHT22;31563;51.744;8.252;2023-11-19T06:14:03;17.40;68.90
45843;DHT22;31563;51.744;8.252;2023-11-19T06:16:32;17.40;70.20
45843;DHT22;31563;51.744;8.252;2023-11-19T06:19:00;17.50;70.70
45843;DHT22;31563;51.744;8.252;2023-11-19T06:21:28;17.50;71.10
45843;DHT22;31563;51.744;8.252;2023-11-19T06:23:58;17.50;71.10
45843;DHT22;31563;51.744;8.252;2023-11-19T06:26:27;17.50;71.10
45843;DHT22;31563;51.744;8.252;2023-11-19T06:28:55;17.50;70.90
45843;DHT22;31563;51.744;8.252;2023-11-19T06:31:23;17.50;70.90
45843;DHT22;31563;51.744;8.252;2023-11-19T06:33:51;17.50;70.90
45843;DHT22;31563;51.744;8.252;2023-11-19T06:36:19;17.50;70.70
45843;DHT22;31563;51.744;8.252;2023-11-19T06:38:48;17.50;71.10
45843;DHT22;31563;51.744;8.252;2023-11-19T06:41:18;17.50;70.90
45843;DHT22;31563;51.744;8.252;2023-11-19T06:43:46;17.40;70.80
45843;DHT22;31563;51.744;8.252;2023-11-19T06:46:17;17.40;70.80
45843;DHT22;31563;51.744;8.252;2023-11-19T06:48:45;17.50;70.80
45843;DHT22;31563;51.744;8.252;2023-11-19T06:51:13;17.50;70.60
45843;DHT22;31563;51.744;8.252;2023-11-19T06:53:42;17.50;70.50
45843;DHT22;31563;51.744;8.252;2023-11-19T06:56:22;17.60;70.40
45843;DHT22;31563;51.744;8.252;2023-11-19T06:58:50;17.60;70.20
45843;DHT22;31563;51.744;8.252;2023-11-19T07:01:18;17.50;70.20
45843;DHT22;31563;51.744;8.252;2023-11-19T07:03:47;17.60;70.10
45843;DHT22;31563;51.744;8.252;2023-11-19T07:06:16;17.60;70.20
45843;DHT22;31563;51.744;8.252;2023-11-19T07:08:44;17.60;70.10
45843;DHT22;31563;51.744;8.252;2023-11-19T07:11:13;17.60;69.90
45843;DHT22;31563;51.744;8.252;2023-11-19T07:13:44;17.60;69.90
45843;DHT22;31563;51.744;8.252;2023-11-19T07:16:14;17.60;69.70
45843;DHT22;31563;51.744;8.252;2023-11-19T07:18:42;17.60;69.60
45843;DHT22;31563;51.744;8.252;2023-11-19T07:21:10;17.60;69.60
45843;DHT22;31563;51.744;8.252;2023-11-19T07:23:38;17.60;69.60
45843;DHT22;31563;51.744;8.252;2023-11-19T07:26:06;17.70;69.50
45843;DHT22;31563;51.744;8.252;2023-11-19T07:28:36;17.80;69.10
45843;DHT22;31563;51.744;8.252;2023-11-19T07:31:05;17.80;68.80
45843;DHT22;31563;51.744;8.252;2023-11-19T07:33:34;17.80;68.50
45843;DHT22;31563;51.744;8.252;2023-11-19T07:36:03;17.90;68.50
45843;DHT22;31563;51.744;8.252;2023-11-19T07:38:31;17.80;68.50
45843;DHT22;31563;51.744;8.252;2023-11-19T07:40:59;17.80;68.50
45843;DHT22;31563;51.744;8.252;2023-11-19T07:43:27;17.80;68.60
45843;DHT22;31563;51.744;8.252;2023-11-19T07:45:55;17.90;68.50
45843;DHT22;31563;51.744;8.252;2023-11-19T07:48:27;17.90;68.40
45843;DHT22;31563;51.744;8.252;2023-11-19T07:50:55;17.90;68.20
45843;DHT22;31563;51.744;8.252;2023-11-19T07:53:23;17.90;68.00
45843;DHT22;31563;51.744;8.252;2023-11-19T07:55:51;17.90;68.10
45843;DHT22;31563;51.744;8.252;2023-11-19T07:58:19;17.90;68.30
45843;DHT22;31563;51.744;8.252;2023-11-19T08:00:47;17.90;68.70
45843;DHT22;31563;51.744;8.252;2023-11-19T08:03:15;17.90;68.80
45843;DHT22;31563;51.744;8.252;2023-11-19T08:05:45;17.90;68.70
45843;DHT22;31563;51.744;8.252;2023-11-19T08:08:13;18.00;68.80
45843;DHT22;31563;51.744;8.252;2023-11-19T08:10:41;18.00;68.70
45843;DHT22;31563;51.744;8.252;2023-11-19T08:13:10;18.10;68.70
45843;DHT22;31563;51.744;8.252;2023-11-19T08:15:38;18.20;68.20
45843;DHT22;31563;51.744;8.252;2023-11-19T08:18:06;18.30;67.80
45843;DHT22;31563;51.744;8.252;2023-11-19T08:20:34;18.30;67.50
45843;DHT22;31563;51.744;8.252;2023-11-19T08:23:03;18.30;67.60
45843;DHT22;31563;51.744;8.252;2023-11-19T08:25:31;18.30;67.50
45843;DHT22;31563;51.744;8.252;2023-11-19T08:28:00;18.30;67.50
45843;DHT22;31563;51.744;8.252;2023-11-19T08:30:29;18.20;67.30
45843;DHT22;31563;51.744;8.252;2023-11-19T08:32:58;18.30;67.40
45843;DHT22;31563;51.744;8.252;2023-11-19T08:35:29;18.40;67.30
45843;DHT22;31563;51.744;8.252;2023-11-19T08:37:58;18.50;67.00
45843;DHT22;31563;51.744;8.252;2023-11-19T08:40:27;18.60;66.80
45843;DHT22;31563;51.744;8.252;2023-11-19T08:42:56;18.70;66.00
45843;DHT22;31563;51.744;8.252;2023-11-19T08:45:25;18.90;65.70
45843;DHT22;31563;51.744;8.252;2023-11-19T08:47:53;18.90;65.50
45843;DHT22;31563;51.744;8.252;2023-11-19T08:50:21;18.80;66.00
45843;DHT22;31563;51.744;8.252;2023-11-19T08:52:50;18.80;65.50
45843;DHT22;31563;51.744;8.252;2023-11-19T08:55:18;18.70;65.50
45843;DHT22;31563;51.744;8.252;2023-11-19T08:57:47;18.70;65.60
45843;DHT22;31563;51.744;8.252;2023-11-19T09:00:16;18.70;65.70
45843;DHT22;31563;51.744;8.252;2023-11-19T09:02:44;18.80;65.50
45843;DHT22;31563;51.744;8.252;2023-11-19T09:05:13;18.90;65.40
45843;DHT22;31563;51.744;8.252;2023-11-19T09:07:41;18.80;65.30
45843;DHT22;31563;51.744;8.252;2023-11-19T09:10:09;18.80;65.40
45843;DHT22;31563;51.744;8.252;2023-11-19T09:12:38;18.90;65.20
45843;DHT22;31563;51.744;8.252;2023-11-19T09:15:08;19.00;64.90
45843;DHT22;31563;51.744;8.252;2023-11-19T09:17:37;19.00;65.40
45843;DHT22;31563;51.744;8.252;2023-11-19T09:20:07;18.80;64.90
45843;DHT22;31563;51.744;8.252;2023-11-19T09:22:35;18.80;65.30
45843;DHT22;31563;51.744;8.252;2023-11-19T09:25:04;18.70;65.40
45843;DHT22;31563;51.744;8.252;2023-11-19T09:27:32;18.60;65.60
45843;DHT22;31563;51.744;8.252;2023-11-19T09:30:00;18.60;65.70
45843;DHT22;31563;51.744;8.252;2023-11-19T09:32:29;18.70;65.80
45843;DHT22;31563;51.744;8.252;2023-11-19T09:34:57;18.70;65.70
45843;DHT22;31563;51.744;8.252;2023-11-19T09:37:24;18.70;65.60
45843;DHT22;31563;51.744;8.252;2023-11-19T09:39:52;18.70;65.40
45843;DHT22;31563;51.744;8.252;2023-11-19T09:42:20;18.80;66.60
45843;DHT22;31563;51.744;8.252;2023-11-19T09:44:48;18.90;66.60
45843;DHT22;31563;51.744;8.252;2023-11-19T09:47:17;19.00;67.00
45843;DHT22;31563;51.744;8.252;2023-11-19T09:49:49;19.30;66.30
45843;DHT22;31563;51.744;8.252;2023-11-19T09:52:17;19.80;64.50
45843;DHT22;31563;51.744;8.252;2023-11-19T09:54:45;20.10;63.50
45843;DHT22;31563;51.744;8.252;2023-11-19T09:57:14;20.70;63.20
45843;DHT22;31563;51.744;8.252;2023-11-19T09:59:45;20.90;61.20
45843;DHT22;31563;51.744;8.252;2023-11-19T10:02:14;20.80;61.10
45843;DHT22;31563;51.744;8.252;2023-11-19T10:04:42;20.60;61.20
45843;DHT22;31563;51.744;8.252;2023-11-19T10:07:13;20.40;62.20
45843;DHT22;31563;51.744;8.252;2023-11-19T10:09:41;20.20;63.30
45843;DHT22;31563;51.744;8.252;2023-11-19T10:12:10;20.10;63.20
45843;DHT22;31563;51.744;8.252;2023-11-19T10:14:38;20.00;63.70
45843;DHT22;31563;51.744;8.252;2023-11-19T10:17:07;20.00;63.80
45843;DHT22;31563;51.744;8.252;2023-11-19T10:19:36;19.90;64.00
45843;DHT22;31563;51.744;8.252;2023-11-19T10:22:04;19.80;64.30
45843;DHT22;31563;51.744;8.252;2023-11-19T10:24:34;19.70;64.20
45843;DHT22;31563;51.744;8.252;2023-11-19T10:27:07;19.70;64.50
45843;DHT22;31563;51.744;8.252;2023-11-19T10:29:36;19.70;64.50
45843;DHT22;31563;51.744;8.252;2023-11-19T10:32:05;19.70;64.30
45843;DHT22;31563;51.744;8.252;2023-11-19T10:34:52;19.80;64.40
45843;DHT22;31563;51.744;8.252;2023-11-19T10:37:31;19.80;63.80
45843;DHT22;31563;51.744;8.252;2023-11-19T10:40:04;19.70;64.20
45843;DHT22;31563;51.744;8.252;2023-11-19T10:42:32;19.60;64.60
45843;DHT22;31563;51.744;8.252;2023-11-19T10:45:00;19.70;64.30
45843;DHT22;31563;51.744;8.252;2023-11-19T10:47:29;19.70;64.00
45843;DHT22;31563;51.744;8.252;2023-11-19T10:50:00;19.70;64.20
45843;DHT22;31563;51.744;8.252;2023-11-19T10:52:28;19.70;64.70
45843;DHT22;31563;51.744;8.252;2023-11-19T10:55:00;19.60;65.10
45843;DHT22;31563;51.744;8.252;2023-11-19T10:57:30;19.60;65.50
45843;DHT22;31563;51.744;8.252;2023-11-19T11:00:03;19.60;65.60
45843;DHT22;31563;51.744;8.252;2023-11-19T11:02:40;19.50;65.80
45843;DHT22;31563;51.744;8.252;2023-11-19T11:05:10;19.50;65.80
45843;DHT22;31563;51.744;8.252;2023-11-19T11:07:40;19.50;65.80
45843;DHT22;31563;51.744;8.252;2023-11-19T11:10:08;19.50;66.00
45843;DHT22;31563;51.744;8.252;2023-11-19T11:12:41;19.40;66.10
45843;DHT22;31563;51.744;8.252;2023-11-19T11:15:11;19.40;66.00
45843;DHT22;31563;51.744;8.252;2023-11-19T11:17:39;19.40;65.70
45843;DHT22;31563;51.744;8.252;2023-11-19T11:20:10;19.50;65.70
45843;DHT22;31563;51.744;8.252;2023-11-19T11:22:57;19.60;65.40
45843;DHT22;31563;51.744;8.252;2023-11-19T11:25:35;19.70;65.00
45843;DHT22;31563;51.744;8.252;2023-11-19T11:28:14;19.80;65.10
45843;DHT22;31563;51.744;8.252;2023-11-19T11:30:54;19.70;65.10
45843;DHT22;31563;51.744;8.252;2023-11-19T11:33:39;19.60;65.30
45843;DHT22;31563;51.744;8.252;2023-11-19T11:36:15;19.50;65.40
45843;DHT22;31563;51.744;8.252;2023-11-19T11:38:48;19.50;65.60
45843;DHT22;31563;51.744;8.252;2023-11-19T11:41:18;19.40;65.90
45843;DHT22;31563;51.744;8.252;2023-11-19T11:43:49;19.40;66.00
45843;DHT22;31563;51.744;8.252;2023-11-19T11:46:54;19.50;65.80
45843;DHT22;31563;51.744;8.252;2023-11-19T11:49:26;19.50;65.60
45843;DHT22;31563;51.744;8.252;2023-11-19T11:52:03;19.70;65.30
45843;DHT22;31563;51.744;8.252;2023-11-19T11:54:31;19.90;64.80
45843;DHT22;31563;51.744;8.252;2023-11-19T11:57:07;20.00;64.50
45843;DHT22;31563;51.744;8.252;2023-11-19T11:59:50;20.10;64.00
45843;DHT22;31563;51.744;8.252;2023-11-19T12:02:20;20.50;63.00
45843;DHT22;31563;51.744;8.252;2023-11-19T12:04:50;20.60;62.30
45843;DHT22;31563;51.744;8.252;2023-11-19T12:07:20;20.40;62.40
45843;DHT22;31563;51.744;8.252;2023-11-19T12:09:52;20.70;62.50
45843;DHT22;31563;51.744;8.252;2023-11-19T12:12:22;21.10;60.80
45843;DHT22;31563;51.744;8.252;2023-11-19T12:15:01;21.50;60.60
45843;DHT22;31563;51.744;8.252;2023-11-19T12:17:37;22.00;59.10
45843;DHT22;31563;51.744;8.252;2023-11-19T12:20:07;21.80;57.90
45843;DHT22;31563;51.744;8.252;2023-11-19T12:22:37;21.20;59.50
45843;DHT22;31563;51.744;8.252;2023-11-19T12:25:05;20.80;60.80
45843;DHT22;31563;51.744;8.252;2023-11-19T12:27:34;20.80;61.50
45843;DHT22;31563;51.744;8.252;2023-11-19T12:30:04;20.70;61.60
45843;DHT22;31563;51.744;8.252;2023-11-19T12:32:42;20.70;61.60
45843;DHT22;31563;51.744;8.252;2023-11-19T12:35:11;20.60;62.00
45843;DHT22;31563;51.744;8.252;2023-11-19T12:37:40;20.70;62.10
45843;DHT22;31563;51.744;8.252;2023-11-19T12:40:13;20.90;61.70
45843;DHT22;31563;51.744;8.252;2023-11-19T12:42:41;21.10;61.10
45843;DHT22;31563;51.744;8.252;2023-11-19T12:45:11;21.70;60.60
45843;DHT22;31563;51.744;8.252;2023-11-19T12:47:40;22.10;58.80
45843;DHT22;31563;51.744;8.252;2023-11-19T12:50:09;22.10;58.50
45843;DHT22;31563;51.744;8.252;2023-11-19T12:52:38;22.00;58.40
45843;DHT22;31563;51.744;8.252;2023-11-19T12:55:24;21.60;59.10
45843;DHT22;31563;51.744;8.252;2023-11-19T12:57:57;21.30;60.10
45843;DHT22;31563;51.744;8.252;2023-11-19T13:00:27;21.00;60.90
45843;DHT22;31563;51.744;8.252;2023-11-19T13:02:56;20.70;61.40
45843;DHT22;31563;51.744;8.252;2023-11-19T13:05:27;20.60;62.00
45843;DHT22;31563;51.744;8.252;2023-11-19T13:08:02;20.50;62.30
45843;DHT22;31563;51.744;8.252;2023-11-19T13:10:31;20.90;62.50
45843;DHT22;31563;51.744;8.252;2023-11-19T13:13:03;21.30;61.10
45843;DHT22;31563;51.744;8.252;2023-11-19T13:15:34;21.60;60.10
45843;DHT22;31563;51.744;8.252;2023-11-19T13:18:02;22.20;58.70
45843;DHT22;31563;51.744;8.252;2023-11-19T13:20:30;22.00;57.90
45843;DHT22;31563;51.744;8.252;2023-11-19T13:23:00;21.90;58.10
45843;DHT22;31563;51.744;8.252;2023-11-19T13:25:29;22.00;58.40
45843;DHT22;31563;51.744;8.252;2023-11-19T13:27:57;21.80;58.10
45843;DHT22;31563;51.744;8.252;2023-11-19T13:30:26;22.30;58.40
45843;DHT22;31563;51.744;8.252;2023-11-19T13:32:55;22.70;57.20
45843;DHT22;31563;51.744;8.252;2023-11-19T13:35:23;23.30;55.00
45843;DHT22;31563;51.744;8.252;2023-11-19T13:37:53;23.20;52.50
45843;DHT22;31563;51.744;8.252;2023-11-19T13:40:21;22.50;52.20
45843;DHT22;31563;51.744;8.252;2023-11-19T13:42:51;22.00;54.10
45843;DHT22;31563;51.744;8.252;2023-11-19T13:45:19;21.80;55.70
45843;DHT22;31563;51.744;8.252;2023-11-19T13:47:47;21.60;55.90
45843;DHT22;31563;51.744;8.252;2023-11-19T13:50:17;21.40;56.50
45843;DHT22;31563;51.744;8.252;2023-11-19T13:52:45;21.20;57.00
45843;DHT22;31563;51.744;8.252;2023-11-19T13:55:14;21.00;57.60
45843;DHT22;31563;51.744;8.252;2023-11-19T13:57:42;20.90;58.30
45843;DHT22;31563;51.744;8.252;2023-11-19T14:00:11;20.80;58.90
45843;DHT22;31563;51.744;8.252;2023-11-19T14:02:40;20.80;58.90
45843;DHT22;31563;51.744;8.252;2023-11-19T14:05:09;20.70;59.40
45843;DHT22;31563;51.744;8.252;2023-11-19T14:07:39;20.60;59.70
45843;DHT22;31563;51.744;8.252;2023-11-19T14:10:08;20.60;60.10
45843;DHT22;31563;51.744;8.252;2023-11-19T14:12:37;20.50;60.20
45843;DHT22;31563;51.744;8.252;2023-11-19T14:15:07;20.40;60.50
45843;DHT22;31563;51.744;8.252;2023-11-19T14:17:36;20.40;60.90
45843;DHT22;31563;51.744;8.252;2023-11-19T14:20:05;20.50;61.20
45843;DHT22;31563;51.744;8.252;2023-11-19T14:22:41;20.80;60.90
45843;DHT22;31563;51.744;8.252;2023-11-19T14:25:09;21.00;60.20
45843;DHT22;31563;51.744;8.252;2023-11-19T14:27:38;21.30;60.10
45843;DHT22;31563;51.744;8.252;2023-11-19T14:30:07;21.50;58.90
45843;DHT22;31563;51.744;8.252;2023-11-19T14:32:35;21.60;58.50
45843;DHT22;31563;51.744;8.252;2023-11-19T14:35:04;21.60;58.40
45843;DHT22;31563;51.744;8.252;2023-11-19T14:37:32;21.60;58.20
45843;DHT22;31563;51.744;8.252;2023-11-19T14:40:02;21.50;58.30
45843;DHT22;31563;51.744;8.252;2023-11-19T14:42:31;21.40;58.40
45843;DHT22;31563;51.744;8.252;2023-11-19T14:44:59;21.20;58.70
45843;DHT22;31563;51.744;8.252;2023-11-19T14:47:27;21.10;59.10
45843;DHT22;31563;51.744;8.252;2023-11-19T14:49:55;20.90;59.60
45843;DHT22;31563;51.744;8.252;2023-11-19T14:52:23;20.80;59.70
45843;DHT22;31563;51.744;8.252;2023-11-19T14:54:51;20.70;60.00
45843;DHT22;31563;51.744;8.252;2023-11-19T14:57:22;20.60;60.30
45843;DHT22;31563;51.744;8.252;2023-11-19T14:59:50;20.50;60.40
45843;DHT22;31563;51.744;8.252;2023-11-19T15:02:18;20.40;60.70
45843;DHT22;31563;51.744;8.252;2023-11-19T15:04:48;20.40;60.70
45843;DHT22;31563;51.744;8.252;2023-11-19T15:07:16;20.30;61.00
45843;DHT22;31563;51.744;8.252;2023-11-19T15:09:44;20.20;61.50
45843;DHT22;31563;51.744;8.252;2023-11-19T15:12:12;20.10;61.90
45843;DHT22;31563;51.744;8.252;2023-11-19T15:14:42;20.00;62.10
45843;DHT22;31563;51.744;8.252;2023-11-19T15:17:10;20.00;62.40
45843;DHT22;31563;51.744;8.252;2023-11-19T15:19:38;19.90;62.40
45843;DHT22;31563;51.744;8.252;2023-11-19T15:22:06;19.90;62.80
45843;DHT22;31563;51.744;8.252;2023-11-19T15:24:34;19.90;62.90
45843;DHT22;31563;51.744;8.252;2023-11-19T15:27:03;19.90;63.10
45843;DHT22;31563;51.744;8.252;2023-11-19T15:29:34;19.90;63.10
45843;DHT22;31563;51.744;8.252;2023-11-19T15:32:06;19.80;63.40
45843;DHT22;31563;51.744;8.252;2023-11-19T15:34:34;19.80;63.40
45843;DHT22;31563;51.744;8.252;2023-11-19T15:37:04;19.70;63.70
45843;DHT22;31563;51.744;8.252;2023-11-19T15:39:32;19.70;63.90
45843;DHT22;31563;51.744;8.252;2023-11-19T15:42:02;19.70;64.10
45843;DHT22;31563;51.744;8.252;2023-11-19T15:44:30;19.50;63.80